sensor_id;sensor_type;location;lat;lon;timestamp;pressure;altitude;pressure_sealevel;temperature;humidity
48622;BME280;34421;48.944;9.460;2023-07-29T00:00:31;98052.66;;;18.29;100.00
48622;BME280;34421;48.944;9.460;2023-07-29T00:02:56;98052.94;;;18.22;100.00
48622;BME280;34421;48.944;9.460;2023-07-29T00:05:24;98063.16;;;18.20;100.00
48622;BME280;34421;48.944;9.460;2023-07-29T00:07:50;98054.03;;;18.21;100.00
48622;BME280;34421;48.944;9.460;2023-07-29T00:10:18;98048.34;;;18.28;100.00
48622;BME280;34421;48.944;9.460;2023-07-29T00:12:44;98058.34;;;18.32;100.00
48622;BME280;34421;48.944;9.460;2023-07-29T00:15:10;98050.22;;;18.37;100.00
48622;BME280;34421;48.944;9.460;2023-07-29T00:17:36;98054.56;;;18.38;100.00
48622;BME280;34421;48.944;9.460;2023-07-29T00:20:01;98061.00;;;18.42;100.00
48622;BME280;34421;48.944;9.460;2023-07-29T00:22:27;98058.31;;;18.48;100.00
48622;BME280;34421;48.944;9.460;2023-07-29T00:24:53;98055.09;;;18.51;99.68
48622;BME280;34421;48.944;9.460;2023-07-29T00:27:23;98058.56;;;18.51;99.85
48622;BME280;34421;48.944;9.460;2023-07-29T00:29:48;98051.28;;;18.57;99.73
48622;BME280;34421;48.944;9.460;2023-07-29T00:32:13;98053.69;;;18.58;99.34
48622;BME280;34421;48.944;9.460;2023-07-29T00:34:39;98048.84;;;18.60;99.62
48622;BME280;34421;48.944;9.460;2023-07-29T00:37:04;98044.25;;;18.56;99.61
48622;BME280;34421;48.944;9.460;2023-07-29T00:39:31;98034.31;;;18.51;100.00
48622;BME280;34421;48.944;9.460;2023-07-29T00:41:56;98036.75;;;18.48;99.63
48622;BME280;34421;48.944;9.460;2023-07-29T00:44:22;98035.94;;;18.42;99.68
48622;BME280;34421;48.944;9.460;2023-07-29T00:46:50;98038.94;;;18.35;100.00
48622;BME280;34421;48.944;9.460;2023-07-29T00:49:17;98034.59;;;18.34;100.00
48622;BME280;34421;48.944;9.460;2023-07-29T00:51:42;98025.97;;;18.37;100.00
48622;BME280;34421;48.944;9.460;2023-07-29T00:54:07;98031.09;;;18.39;100.00
48622;BME280;34421;48.944;9.460;2023-07-29T00:56:33;98039.44;;;18.42;99.85
48622;BME280;34421;48.944;9.460;2023-07-29T00:58:59;98035.13;;;18.47;100.00
48622;BME280;34421;48.944;9.460;2023-07-29T01:01:27;98025.13;;;18.47;99.59
48622;BME280;34421;48.944;9.460;2023-07-29T01:03:52;98016.25;;;18.47;100.00
48622;BME280;34421;48.944;9.460;2023-07-29T01:09:02;98021.13;;;18.44;99.86
48622;BME280;34421;48.944;9.460;2023-07-29T01:11:54;98022.19;;;18.43;99.45
48622;BME280;34421;48.944;9.460;2023-07-29T01:17:03;98018.16;;;18.46;99.59
48622;BME280;34421;48.944;9.460;2023-07-29T01:22:20;98026.50;;;18.55;99.64
48622;BME280;34421;48.944;9.460;2023-07-29T01:24:46;98016.50;;;18.60;99.41
48622;BME280;34421;48.944;9.460;2023-07-29T01:27:11;98005.97;;;18.64;99.40
48622;BME280;34421;48.944;9.460;2023-07-29T01:29:37;98002.47;;;18.63;99.20
48622;BME280;34421;48.944;9.460;2023-07-29T01:32:11;98007.59;;;18.65;99.11
48622;BME280;34421;48.944;9.460;2023-07-29T01:34:43;97992.50;;;18.64;99.14
48622;BME280;34421;48.944;9.460;2023-07-29T01:37:15;98002.22;;;18.65;99.04
48622;BME280;34421;48.944;9.460;2023-07-29T01:39:45;97997.63;;;18.65;99.04
48622;BME280;34421;48.944;9.460;2023-07-29T01:42:11;98005.16;;;18.63;98.91
48622;BME280;34421;48.944;9.460;2023-07-29T01:44:37;97989.81;;;18.59;98.91
48622;BME280;34421;48.944;9.460;2023-07-29T01:47:02;97994.13;;;18.55;99.16
48622;BME280;34421;48.944;9.460;2023-07-29T01:49:28;97993.09;;;18.51;99.01
48622;BME280;34421;48.944;9.460;2023-07-29T01:51:53;97997.66;;;18.50;99.39
48622;BME280;34421;48.944;9.460;2023-07-29T01:54:18;97993.63;;;18.48;98.97
48622;BME280;34421;48.944;9.460;2023-07-29T01:56:44;97996.88;;;18.44;99.27
48622;BME280;34421;48.944;9.460;2023-07-29T01:59:09;97993.34;;;18.44;99.22
48622;BME280;34421;48.944;9.460;2023-07-29T02:01:34;97994.16;;;18.44;99.70
48622;BME280;34421;48.944;9.460;2023-07-29T02:04:00;97992.00;;;18.47;99.17
48622;BME280;34421;48.944;9.460;2023-07-29T02:06:25;97981.22;;;18.47;99.01
48622;BME280;34421;48.944;9.460;2023-07-29T02:08:53;97982.84;;;18.48;99.29
48622;BME280;34421;48.944;9.460;2023-07-29T02:11:18;97988.75;;;18.50;99.17
48622;BME280;34421;48.944;9.460;2023-07-29T02:13:45;97986.34;;;18.53;98.87
48622;BME280;34421;48.944;9.460;2023-07-29T02:16:11;97986.59;;;18.57;98.94
48622;BME280;34421;48.944;9.460;2023-07-29T02:18:36;97983.59;;;18.58;98.63
48622;BME280;34421;48.944;9.460;2023-07-29T02:21:01;97984.16;;;18.60;98.62
48622;BME280;34421;48.944;9.460;2023-07-29T02:23:26;97987.66;;;18.61;98.67
48622;BME280;34421;48.944;9.460;2023-07-29T02:25:52;97989.00;;;18.63;98.62
48622;BME280;34421;48.944;9.460;2023-07-29T02:28:17;97987.91;;;18.64;98.59
48622;BME280;34421;48.944;9.460;2023-07-29T02:30:43;97984.94;;;18.66;98.70
48622;BME280;34421;48.944;9.460;2023-07-29T02:33:11;97990.34;;;18.66;98.58
48622;BME280;34421;48.944;9.460;2023-07-29T02:35:36;97985.50;;;18.63;98.82
48622;BME280;34421;48.944;9.460;2023-07-29T02:38:01;97979.84;;;18.59;98.99
48622;BME280;34421;48.944;9.460;2023-07-29T02:40:27;97972.81;;;18.58;99.05
48622;BME280;34421;48.944;9.460;2023-07-29T02:42:54;97970.72;;;18.50;99.07
48622;BME280;34421;48.944;9.460;2023-07-29T02:45:19;97969.38;;;18.48;98.74
48622;BME280;34421;48.944;9.460;2023-07-29T02:47:44;97975.56;;;18.43;98.98
48622;BME280;34421;48.944;9.460;2023-07-29T02:50:10;97973.16;;;18.41;98.87
48622;BME280;34421;48.944;9.460;2023-07-29T02:52:35;97962.94;;;18.38;99.04
48622;BME280;34421;48.944;9.460;2023-07-29T02:55:00;97965.06;;;18.36;99.40
48622;BME280;34421;48.944;9.460;2023-07-29T02:57:26;97964.00;;;18.32;99.26
48622;BME280;34421;48.944;9.460;2023-07-29T02:59:51;97966.41;;;18.34;99.34
48622;BME280;34421;48.944;9.460;2023-07-29T03:02:16;97963.47;;;18.35;99.09
48622;BME280;34421;48.944;9.460;2023-07-29T03:04:42;97959.69;;;18.36;99.04
48622;BME280;34421;48.944;9.460;2023-07-29T03:07:07;97953.25;;;18.32;99.34
48622;BME280;34421;48.944;9.460;2023-07-29T03:09:32;97949.44;;;18.28;98.86
48622;BME280;34421;48.944;9.460;2023-07-29T03:11:58;97940.56;;;18.22;99.23
48622;BME280;34421;48.944;9.460;2023-07-29T03:14:24;97945.44;;;18.15;99.42
48622;BME280;34421;48.944;9.460;2023-07-29T03:16:50;97940.88;;;18.06;99.79
48622;BME280;34421;48.944;9.460;2023-07-29T03:19:15;97934.69;;;18.00;99.54
48622;BME280;34421;48.944;9.460;2023-07-29T03:21:40;97931.72;;;17.96;99.83
48622;BME280;34421;48.944;9.460;2023-07-29T03:24:06;97931.75;;;17.91;99.68
48622;BME280;34421;48.944;9.460;2023-07-29T03:26:32;97921.50;;;17.88;100.00
48622;BME280;34421;48.944;9.460;2023-07-29T03:28:57;97916.66;;;17.85;99.92
48622;BME280;34421;48.944;9.460;2023-07-29T03:31:22;97920.72;;;17.83;100.00
48622;BME280;34421;48.944;9.460;2023-07-29T03:33:47;97918.56;;;17.80;100.00
48622;BME280;34421;48.944;9.460;2023-07-29T03:36:13;97924.44;;;17.76;100.00
48622;BME280;34421;48.944;9.460;2023-07-29T03:38:39;97925.00;;;17.73;100.00
48622;BME280;34421;48.944;9.460;2023-07-29T03:41:07;97924.72;;;17.70;100.00
48622;BME280;34421;48.944;9.460;2023-07-29T03:43:32;97928.22;;;17.70;100.00
48622;BME280;34421;48.944;9.460;2023-07-29T03:45:58;97933.34;;;17.77;100.00
48622;BME280;34421;48.944;9.460;2023-07-29T03:48:23;97937.41;;;17.85;99.93
48622;BME280;34421;48.944;9.460;2023-07-29T03:50:49;97944.13;;;17.92;100.00
48622;BME280;34421;48.944;9.460;2023-07-29T03:53:14;97944.13;;;17.97;99.68
48622;BME280;34421;48.944;9.460;2023-07-29T03:55:39;97935.50;;;18.01;99.53
48622;BME280;34421;48.944;9.460;2023-07-29T03:58:05;97933.34;;;18.03;99.84
48622;BME280;34421;48.944;9.460;2023-07-29T04:00:30;97932.81;;;18.06;99.89
48622;BME280;34421;48.944;9.460;2023-07-29T04:02:56;97932.81;;;18.06;99.32
48622;BME280;34421;48.944;9.460;2023-07-29T04:05:21;97919.84;;;18.08;99.90
48622;BME280;34421;48.944;9.460;2023-07-29T04:07:47;97925.25;;;18.13;99.21
48622;BME280;34421;48.944;9.460;2023-07-29T04:10:12;97929.28;;;18.20;98.93
48622;BME280;34421;48.944;9.460;2023-07-29T04:12:38;97925.22;;;18.23;98.72
48622;BME280;34421;48.944;9.460;2023-07-29T04:15:04;97927.91;;;18.28;98.83
48622;BME280;34421;48.944;9.460;2023-07-29T04:17:29;97928.44;;;18.30;98.87
48622;BME280;34421;48.944;9.460;2023-07-29T04:19:54;97934.88;;;18.34;98.83
48622;BME280;34421;48.944;9.460;2023-07-29T04:22:20;97942.16;;;18.39;98.72
48622;BME280;34421;48.944;9.460;2023-07-29T04:24:46;97951.59;;;18.41;98.70
48622;BME280;34421;48.944;9.460;2023-07-29T04:27:11;97938.63;;;18.43;98.70
48622;BME280;34421;48.944;9.460;2023-07-29T04:29:36;97937.03;;;18.42;98.46
48622;BME280;34421;48.944;9.460;2023-07-29T04:32:03;97945.38;;;18.41;98.26
48622;BME280;34421;48.944;9.460;2023-07-29T04:34:28;97953.19;;;18.42;98.70
48622;BME280;34421;48.944;9.460;2023-07-29T04:36:53;97945.66;;;18.44;98.47
48622;BME280;34421;48.944;9.460;2023-07-29T04:39:19;97941.06;;;18.45;98.37
48622;BME280;34421;48.944;9.460;2023-07-29T04:41:45;97937.03;;;18.42;98.56
48622;BME280;34421;48.944;9.460;2023-07-29T04:44:11;97940.81;;;18.41;98.72
48622;BME280;34421;48.944;9.460;2023-07-29T04:46:36;97938.91;;;18.42;98.55
48622;BME280;34421;48.944;9.460;2023-07-29T04:49:02;97952.66;;;18.45;98.31
48622;BME280;34421;48.944;9.460;2023-07-29T04:51:28;97957.50;;;18.49;98.36
48622;BME280;34421;48.944;9.460;2023-07-29T04:53:53;97961.00;;;18.49;98.08
48622;BME280;34421;48.944;9.460;2023-07-29T04:56:18;97952.09;;;18.49;98.22
48622;BME280;34421;48.944;9.460;2023-07-29T04:58:43;97956.41;;;18.50;98.51
48622;BME280;34421;48.944;9.460;2023-07-29T05:01:09;97961.00;;;18.49;98.30
48622;BME280;34421;48.944;9.460;2023-07-29T05:03:34;97980.66;;;18.50;98.67
48622;BME280;34421;48.944;9.460;2023-07-29T05:06:00;97994.13;;;18.50;98.75
48622;BME280;34421;48.944;9.460;2023-07-29T05:08:26;97996.31;;;18.48;98.99
48622;BME280;34421;48.944;9.460;2023-07-29T05:10:52;97993.88;;;18.51;99.08
48622;BME280;34421;48.944;9.460;2023-07-29T05:13:18;97993.59;;;18.53;99.08
48622;BME280;34421;48.944;9.460;2023-07-29T05:15:44;97989.53;;;18.55;98.75
48622;BME280;34421;48.944;9.460;2023-07-29T05:18:09;97989.03;;;18.53;99.32
48622;BME280;34421;48.944;9.460;2023-07-29T05:20:35;97961.25;;;18.53;99.04
48622;BME280;34421;48.944;9.460;2023-07-29T05:23:00;97959.38;;;18.53;99.35
48622;BME280;34421;48.944;9.460;2023-07-29T05:25:26;97964.22;;;18.51;99.44
48622;BME280;34421;48.944;9.460;2023-07-29T05:27:52;97960.44;;;18.47;99.71
48622;BME280;34421;48.944;9.460;2023-07-29T05:30:17;97953.16;;;18.53;100.00
48622;BME280;34421;48.944;9.460;2023-07-29T05:32:42;97946.09;;;18.67;99.75
48622;BME280;34421;48.944;9.460;2023-07-29T05:35:08;97946.38;;;18.76;99.61
48622;BME280;34421;48.944;9.460;2023-07-29T05:37:33;97936.59;;;18.90;99.24
48622;BME280;34421;48.944;9.460;2023-07-29T05:39:59;97935.69;;;19.10;99.50
48622;BME280;34421;48.944;9.460;2023-07-29T05:42:24;97954.97;;;19.38;98.46
48622;BME280;34421;48.944;9.460;2023-07-29T05:44:49;97955.31;;;19.65;97.71
48622;BME280;34421;48.944;9.460;2023-07-29T05:47:15;97956.78;;;19.87;97.11
48622;BME280;34421;48.944;9.460;2023-07-29T05:49:40;97948.38;;;19.93;96.92
48622;BME280;34421;48.944;9.460;2023-07-29T05:52:06;97951.00;;;19.98;96.19
48622;BME280;34421;48.944;9.460;2023-07-29T05:54:31;97938.97;;;20.15;96.11
48622;BME280;34421;48.944;9.460;2023-07-29T05:56:56;97950.38;;;20.36;94.83
48622;BME280;34421;48.944;9.460;2023-07-29T05:59:22;97948.38;;;20.46;94.14
48622;BME280;34421;48.944;9.460;2023-07-29T06:01:47;97952.25;;;20.64;93.32
48622;BME280;34421;48.944;9.460;2023-07-29T06:04:12;97949.66;;;20.78;92.84
48622;BME280;34421;48.944;9.460;2023-07-29T06:06:37;97947.28;;;20.96;91.25
48622;BME280;34421;48.944;9.460;2023-07-29T06:09:03;97951.53;;;21.21;91.01
48622;BME280;34421;48.944;9.460;2023-07-29T06:11:28;97946.31;;;21.48;89.27
48622;BME280;34421;48.944;9.460;2023-07-29T06:13:53;97937.09;;;21.82;88.21
48622;BME280;34421;48.944;9.460;2023-07-29T06:16:19;97930.31;;;22.31;87.06
48622;BME280;34421;48.944;9.460;2023-07-29T06:18:45;97938.63;;;22.48;86.03
48622;BME280;34421;48.944;9.460;2023-07-29T06:21:10;97929.88;;;22.51;85.33
48622;BME280;34421;48.944;9.460;2023-07-29T06:23:41;97921.56;;;22.48;85.22
48622;BME280;34421;48.944;9.460;2023-07-29T06:26:07;97927.50;;;22.64;84.89
48622;BME280;34421;48.944;9.460;2023-07-29T06:28:32;97922.53;;;22.93;82.69
48622;BME280;34421;48.944;9.460;2023-07-29T06:30:57;97923.31;;;23.08;81.80
48622;BME280;34421;48.944;9.460;2023-07-29T06:33:23;97925.25;;;22.93;82.77
48622;BME280;34421;48.944;9.460;2023-07-29T06:35:48;97923.72;;;22.87;82.25
48622;BME280;34421;48.944;9.460;2023-07-29T06:38:14;97922.84;;;22.78;82.29
48622;BME280;34421;48.944;9.460;2023-07-29T06:40:39;97926.38;;;22.79;81.87
48622;BME280;34421;48.944;9.460;2023-07-29T06:43:04;97919.84;;;22.80;82.01
48622;BME280;34421;48.944;9.460;2023-07-29T06:45:30;97932.00;;;22.82;81.53
48622;BME280;34421;48.944;9.460;2023-07-29T06:47:55;97924.47;;;22.79;81.79
48622;BME280;34421;48.944;9.460;2023-07-29T06:50:20;97932.72;;;22.74;80.74
48622;BME280;34421;48.944;9.460;2023-07-29T06:52:46;97933.50;;;22.74;81.11
48622;BME280;34421;48.944;9.460;2023-07-29T06:55:11;97935.50;;;22.69;80.47
48622;BME280;34421;48.944;9.460;2023-07-29T06:57:36;97946.19;;;22.65;81.02
48622;BME280;34421;48.944;9.460;2023-07-29T07:00:03;97945.47;;;22.60;80.89
48622;BME280;34421;48.944;9.460;2023-07-29T07:02:28;97951.81;;;22.55;81.31
48622;BME280;34421;48.944;9.460;2023-07-29T07:04:54;97951.41;;;22.48;82.03
48622;BME280;34421;48.944;9.460;2023-07-29T07:07:19;97952.91;;;22.40;81.87
48622;BME280;34421;48.944;9.460;2023-07-29T07:09:46;97954.41;;;22.33;81.98
48622;BME280;34421;48.944;9.460;2023-07-29T07:12:11;97952.47;;;22.33;82.11
48622;BME280;34421;48.944;9.460;2023-07-29T07:14:37;97951.47;;;22.29;82.02
48622;BME280;34421;48.944;9.460;2023-07-29T07:17:03;97958.19;;;22.18;82.44
48622;BME280;34421;48.944;9.460;2023-07-29T07:19:28;97958.44;;;22.02;82.22
48622;BME280;34421;48.944;9.460;2023-07-29T07:21:53;97951.50;;;21.96;83.06
48622;BME280;34421;48.944;9.460;2023-07-29T07:24:19;97966.44;;;21.94;83.53
48622;BME280;34421;48.944;9.460;2023-07-29T07:26:44;97974.63;;;21.89;83.68
48622;BME280;34421;48.944;9.460;2023-07-29T07:29:09;97978.47;;;21.88;83.56
48622;BME280;34421;48.944;9.460;2023-07-29T07:34:00;97984.94;;;21.73;84.59
48622;BME280;34421;48.944;9.460;2023-07-29T07:36:27;97986.84;;;21.72;84.38
48622;BME280;34421;48.944;9.460;2023-07-29T07:38:52;97988.66;;;21.77;83.85
48622;BME280;34421;48.944;9.460;2023-07-29T07:41:18;97993.25;;;21.76;83.69
48622;BME280;34421;48.944;9.460;2023-07-29T07:43:43;97982.88;;;21.65;83.79
48622;BME280;34421;48.944;9.460;2023-07-29T07:46:08;97975.41;;;21.56;84.50
48622;BME280;34421;48.944;9.460;2023-07-29T07:48:33;97976.91;;;21.49;84.78
48622;BME280;34421;48.944;9.460;2023-07-29T07:50:59;97978.28;;;21.46;84.80
48622;BME280;34421;48.944;9.460;2023-07-29T07:53:24;97974.47;;;21.47;85.08
48622;BME280;34421;48.944;9.460;2023-07-29T07:55:51;97981.41;;;21.53;84.77
48622;BME280;34421;48.944;9.460;2023-07-29T07:58:16;97976.91;;;21.49;85.38
48622;BME280;34421;48.944;9.460;2023-07-29T08:00:41;97977.69;;;21.49;85.16
48622;BME280;34421;48.944;9.460;2023-07-29T08:03:07;97966.47;;;21.56;84.99
48622;BME280;34421;48.944;9.460;2023-07-29T08:05:32;97969.50;;;21.54;85.22
48622;BME280;34421;48.944;9.460;2023-07-29T08:07:57;97967.22;;;21.61;85.04
48622;BME280;34421;48.944;9.460;2023-07-29T08:10:23;97970.72;;;21.81;85.43
48622;BME280;34421;48.944;9.460;2023-07-29T08:12:48;97966.50;;;21.89;83.75
48622;BME280;34421;48.944;9.460;2023-07-29T08:15:13;97970.97;;;21.98;83.59
48622;BME280;34421;48.944;9.460;2023-07-29T08:17:39;97975.25;;;22.18;82.96
48622;BME280;34421;48.944;9.460;2023-07-29T08:20:05;97966.16;;;22.28;83.13
48622;BME280;34421;48.944;9.460;2023-07-29T08:22:30;97972.38;;;22.42;81.43
48622;BME280;34421;48.944;9.460;2023-07-29T08:24:55;97977.81;;;22.56;81.13
48622;BME280;34421;48.944;9.460;2023-07-29T08:27:21;97972.81;;;22.49;81.19
48622;BME280;34421;48.944;9.460;2023-07-29T08:29:46;97973.09;;;22.48;81.95
48622;BME280;34421;48.944;9.460;2023-07-29T08:32:11;97979.44;;;22.71;81.12
48622;BME280;34421;48.944;9.460;2023-07-29T08:34:37;97997.59;;;23.39;78.94
48622;BME280;34421;48.944;9.460;2023-07-29T08:37:02;97991.06;;;25.76;71.96
48622;BME280;34421;48.944;9.460;2023-07-29T08:39:27;97987.84;;;27.95;64.91
48622;BME280;34421;48.944;9.460;2023-07-29T08:42:03;97989.47;;;27.97;63.03
48622;BME280;34421;48.944;9.460;2023-07-29T08:44:39;97992.88;;;26.92;62.34
48622;BME280;34421;48.944;9.460;2023-07-29T08:47:05;97989.31;;;25.98;64.99
48622;BME280;34421;48.944;9.460;2023-07-29T08:49:31;97992.69;;;25.86;65.66
48622;BME280;34421;48.944;9.460;2023-07-29T08:51:57;97991.06;;;25.67;64.69
48622;BME280;34421;48.944;9.460;2023-07-29T08:54:22;97978.88;;;25.48;66.47
48622;BME280;34421;48.944;9.460;2023-07-29T08:56:48;97984.28;;;25.30;66.14
48622;BME280;34421;48.944;9.460;2023-07-29T08:59:14;97978.38;;;25.37;66.14
48622;BME280;34421;48.944;9.460;2023-07-29T09:01:39;97979.03;;;27.69;61.00
48622;BME280;34421;48.944;9.460;2023-07-29T09:04:05;97977.16;;;32.88;49.48
48622;BME280;34421;48.944;9.460;2023-07-29T09:06:31;97968.44;;;36.85;41.67
48622;BME280;34421;48.944;9.460;2023-07-29T09:08:58;97971.56;;;36.37;40.07
48622;BME280;34421;48.944;9.460;2023-07-29T09:11:24;97974.69;;;34.72;42.03
48622;BME280;34421;48.944;9.460;2023-07-29T09:13:49;97985.53;;;32.96;43.06
48622;BME280;34421;48.944;9.460;2023-07-29T09:16:14;97985.34;;;32.39;44.59
48622;BME280;34421;48.944;9.460;2023-07-29T09:18:40;97977.66;;;31.86;45.60
48622;BME280;34421;48.944;9.460;2023-07-29T09:21:05;97984.34;;;31.66;46.41
48622;BME280;34421;48.944;9.460;2023-07-29T09:23:41;97975.19;;;30.91;47.18
48622;BME280;34421;48.944;9.460;2023-07-29T09:26:07;97965.50;;;31.87;45.43
48622;BME280;34421;48.944;9.460;2023-07-29T09:28:34;97956.97;;;32.15;45.12
48622;BME280;34421;48.944;9.460;2023-07-29T09:31:01;97960.47;;;34.69;40.17
48622;BME280;34421;48.944;9.460;2023-07-29T09:33:27;97963.94;;;35.91;38.46
48622;BME280;34421;48.944;9.460;2023-07-29T09:35:52;97964.84;;;36.31;38.14
48622;BME280;34421;48.944;9.460;2023-07-29T09:38:18;97956.16;;;36.79;37.26
48622;BME280;34421;48.944;9.460;2023-07-29T09:40:54;97948.81;;;38.97;34.66
48622;BME280;34421;48.944;9.460;2023-07-29T09:43:25;97935.81;;;41.34;30.46
48622;BME280;34421;48.944;9.460;2023-07-29T09:45:52;97936.66;;;42.93;28.58
48622;BME280;34421;48.944;9.460;2023-07-29T09:48:22;97934.16;;;44.59;26.38
48622;BME280;34421;48.944;9.460;2023-07-29T09:50:48;97937.00;;;45.29;24.98
48622;BME280;34421;48.944;9.460;2023-07-29T09:53:13;97936.31;;;42.25;27.31
48622;BME280;34421;48.944;9.460;2023-07-29T09:55:39;97921.94;;;40.13;29.93
48622;BME280;34421;48.944;9.460;2023-07-29T09:58:04;97917.47;;;39.27;31.71
48622;BME280;34421;48.944;9.460;2023-07-29T10:00:33;97909.06;;;37.96;33.14
48622;BME280;34421;48.944;9.460;2023-07-29T10:02:59;97914.47;;;38.17;32.22
48622;BME280;34421;48.944;9.460;2023-07-29T10:05:26;97917.81;;;37.83;32.07
48622;BME280;34421;48.944;9.460;2023-07-29T10:07:52;97920.50;;;36.45;33.45
48622;BME280;34421;48.944;9.460;2023-07-29T10:10:18;97921.00;;;35.42;35.00
48622;BME280;34421;48.944;9.460;2023-07-29T10:12:43;97937.97;;;33.93;35.54
48622;BME280;34421;48.944;9.460;2023-07-29T10:15:09;97956.25;;;31.95;39.14
48622;BME280;34421;48.944;9.460;2023-07-29T10:17:36;98004.91;;;29.69;47.76
48622;BME280;34421;48.944;9.460;2023-07-29T10:20:06;98034.69;;;27.73;55.46
48622;BME280;34421;48.944;9.460;2023-07-29T10:22:39;98037.59;;;25.97;62.89
48622;BME280;34421;48.944;9.460;2023-07-29T10:25:11;98032.56;;;24.90;64.94
48622;BME280;34421;48.944;9.460;2023-07-29T10:28:01;98024.63;;;24.40;66.08
48622;BME280;34421;48.944;9.460;2023-07-29T10:30:30;98017.66;;;23.80;67.33
48622;BME280;34421;48.944;9.460;2023-07-29T10:32:58;98022.66;;;23.36;68.18
48622;BME280;34421;48.944;9.460;2023-07-29T10:35:24;98028.41;;;23.21;68.84
48622;BME280;34421;48.944;9.460;2023-07-29T10:37:50;98033.34;;;23.19;69.76
48622;BME280;34421;48.944;9.460;2023-07-29T10:40:18;98014.22;;;23.24;70.63
48622;BME280;34421;48.944;9.460;2023-07-29T10:43:09;98018.78;;;23.65;68.99
48622;BME280;34421;48.944;9.460;2023-07-29T10:45:39;98023.75;;;23.85;69.84
48622;BME280;34421;48.944;9.460;2023-07-29T10:48:12;98016.84;;;24.24;69.44
48622;BME280;34421;48.944;9.460;2023-07-29T10:50:37;98019.53;;;26.48;64.85
48622;BME280;34421;48.944;9.460;2023-07-29T10:53:03;98020.41;;;27.88;61.30
48622;BME280;34421;48.944;9.460;2023-07-29T10:55:34;98000.44;;;28.09;59.59
48622;BME280;34421;48.944;9.460;2023-07-29T10:58:12;98010.72;;;28.12;59.83
48622;BME280;34421;48.944;9.460;2023-07-29T11:00:41;98012.91;;;28.76;57.81
48622;BME280;34421;48.944;9.460;2023-07-29T11:03:06;97997.38;;;29.94;55.31
48622;BME280;34421;48.944;9.460;2023-07-29T11:05:42;97995.81;;;32.49;50.50
48622;BME280;34421;48.944;9.460;2023-07-29T11:08:23;97996.44;;;32.88;47.98
48622;BME280;34421;48.944;9.460;2023-07-29T11:11:06;97992.19;;;34.42;44.82
48622;BME280;34421;48.944;9.460;2023-07-29T11:13:34;97985.53;;;34.98;42.46
48622;BME280;34421;48.944;9.460;2023-07-29T11:16:00;97994.03;;;33.97;43.76
48622;BME280;34421;48.944;9.460;2023-07-29T11:18:28;97987.25;;;34.21;42.88
48622;BME280;34421;48.944;9.460;2023-07-29T11:20:56;97989.94;;;34.17;43.56
48622;BME280;34421;48.944;9.460;2023-07-29T11:23:37;97976.72;;;33.40;43.78
48622;BME280;34421;48.944;9.460;2023-07-29T11:26:04;97983.59;;;32.73;44.07
48622;BME280;34421;48.944;9.460;2023-07-29T11:28:30;97989.53;;;31.71;46.13
48622;BME280;34421;48.944;9.460;2023-07-29T11:30:56;97991.13;;;31.01;47.12
48622;BME280;34421;48.944;9.460;2023-07-29T11:33:24;97979.97;;;30.47;47.83
48622;BME280;34421;48.944;9.460;2023-07-29T11:35:50;97996.22;;;30.24;48.29
48622;BME280;34421;48.944;9.460;2023-07-29T11:38:17;97986.88;;;30.56;48.15
48622;BME280;34421;48.944;9.460;2023-07-29T11:40:44;97983.31;;;30.72;47.39
48622;BME280;34421;48.944;9.460;2023-07-29T11:43:18;97993.84;;;30.70;47.57
48622;BME280;34421;48.944;9.460;2023-07-29T11:45:44;97982.16;;;30.57;46.82
48622;BME280;34421;48.944;9.460;2023-07-29T11:48:10;97985.00;;;30.45;46.77
48622;BME280;34421;48.944;9.460;2023-07-29T11:50:35;97982.97;;;30.57;46.89
48622;BME280;34421;48.944;9.460;2023-07-29T11:53:01;97971.00;;;30.65;46.78
48622;BME280;34421;48.944;9.460;2023-07-29T11:55:27;97972.44;;;30.59;45.87
48622;BME280;34421;48.944;9.460;2023-07-29T11:57:52;97971.78;;;30.66;46.03
48622;BME280;34421;48.944;9.460;2023-07-29T12:00:18;97951.50;;;30.71;45.83
48622;BME280;34421;48.944;9.460;2023-07-29T12:02:44;97962.88;;;30.37;46.22
48622;BME280;34421;48.944;9.460;2023-07-29T12:05:10;97963.31;;;30.11;45.80
48622;BME280;34421;48.944;9.460;2023-07-29T12:07:41;97958.13;;;29.78;46.35
48622;BME280;34421;48.944;9.460;2023-07-29T12:10:07;97958.50;;;29.52;46.92
48622;BME280;34421;48.944;9.460;2023-07-29T12:12:33;97957.44;;;29.57;46.26
48622;BME280;34421;48.944;9.460;2023-07-29T12:14:58;97962.66;;;29.46;46.88
48622;BME280;34421;48.944;9.460;2023-07-29T12:17:24;97962.09;;;29.40;46.77
48622;BME280;34421;48.944;9.460;2023-07-29T12:19:49;97950.09;;;29.45;46.96
48622;BME280;34421;48.944;9.460;2023-07-29T12:22:19;97955.16;;;29.30;47.15
48622;BME280;34421;48.944;9.460;2023-07-29T12:24:44;97948.44;;;29.16;47.44
48622;BME280;34421;48.944;9.460;2023-07-29T12:27:14;97947.19;;;28.89;47.49
48622;BME280;34421;48.944;9.460;2023-07-29T12:29:42;97945.38;;;28.68;47.99
48622;BME280;34421;48.944;9.460;2023-07-29T12:32:09;97944.09;;;28.41;48.70
48622;BME280;34421;48.944;9.460;2023-07-29T12:34:37;97936.75;;;28.33;49.11
48622;BME280;34421;48.944;9.460;2023-07-29T12:37:04;97934.09;;;28.24;48.99
48622;BME280;34421;48.944;9.460;2023-07-29T12:39:32;97931.31;;;28.00;49.22
48622;BME280;34421;48.944;9.460;2023-07-29T12:41:59;97934.16;;;27.91;50.05
48622;BME280;34421;48.944;9.460;2023-07-29T12:44:30;97941.00;;;27.97;49.77
48622;BME280;34421;48.944;9.460;2023-07-29T12:46:56;97938.09;;;28.14;49.29
48622;BME280;34421;48.944;9.460;2023-07-29T12:49:21;97939.78;;;28.19;49.60
48622;BME280;34421;48.944;9.460;2023-07-29T12:51:47;97942.44;;;28.28;50.02
48622;BME280;34421;48.944;9.460;2023-07-29T12:54:13;97931.06;;;28.38;49.37
48622;BME280;34421;48.944;9.460;2023-07-29T12:56:38;97943.22;;;28.28;49.01
48622;BME280;34421;48.944;9.460;2023-07-29T12:59:05;97942.41;;;28.15;49.76
48622;BME280;34421;48.944;9.460;2023-07-29T13:01:30;97950.91;;;28.02;50.62
48622;BME280;34421;48.944;9.460;2023-07-29T13:03:56;97944.38;;;27.82;50.58
48622;BME280;34421;48.944;9.460;2023-07-29T13:06:21;97931.75;;;27.68;50.86